メインページ
METAR-TAF:

METAR-TAF

空港 :

デンバー国際空港

デンバー, コロラド州, アメリカ合衆国

緯度: 39-49-58N, 経度: 104-39-27W, 海抜: 1655m

現時点の気象観測

当レポートは30分前の22:53(UTC)に作成
西の風 13kt、最大22ktの突風を伴う
気温 23°C
湿度 29%
気圧 1013 hPa
視程: 16.1km
高度7000ftの雲は散在している
高度12000ftの雲は散在している
高度16000ftの千切れ雲あり

METAR: KDEN 242253Z 28013G22KT 10SM SCT070 SCT120 BKN160 23/04 A2991 RMK AO2 PK WND 24033/2159 RAB2154E14 SLP056 P0001 T02330039

時間: 17:23 (23:23 UTC)

予報

当レポートは43分前の22:40(UTC)に作成
予報は24日の 23時(UTC)から 25日の 24時(UTC)まで有効
西/北西の風 15kt、最大25ktの突風を伴う
視程: 10km
高度7000ftの雲は散在している
高度12000ftの千切れ雲あり
25日の 0000時(UTC)から
西の風 14kt
視程: 10km
高度7000ftの雲はほとんどない
高度12000ftの千切れ雲あり
25日の 0100時(UTC)から
南西の風 8kt
視程: 10km
高度7000ftの雲は散在している
高度15000ftの雲は散在している
25日の 0600時(UTC)から
西/北西の風 12kt
視程: 10km
高度15000ftの雲はほとんどない
25日の 0900時(UTC)から
の風 18kt、最大28ktの突風を伴う
視程: 10km
高度2000ftの雲は散在している
25日の 1100時(UTC)から
の風 14kt、最大22ktの突風を伴う
視程: 10km
高度2000ftの千切れ雲あり
25日の 1800時(UTC)から
北/北東の風 12kt
視程: 10km
高度4000ftの雲は散在している

TAF: KDEN 242240Z 2423/2524 29015G25KT P6SM SCT070 BKN120 FM250000 27014KT P6SM FEW070 BKN120 FM250100 23008KT P6SM SCT070 SCT150 FM250600 30012KT P6SM FEW150 FM250900 36018G28KT P6SM SCT020 FM251100 01014G22KT P6SM BKN020 FM251800 03012KT P6SM SCT040

4,000以上の空港の気象観測と天気予報(METAR報とTAF報)

利用可能な観測所は地図上に黄色い丸と赤い丸で示す。

丸の上にカーソルを重ねると観測所名を参照できる。

次にクリックすると気象観測と天気予報を参照できる。

マップの切り替え:黒色「×」印の緑ボタンをクリックして拡大、「-」印の緑ボタンをクリックして縮小、緑色の三角印をクリックして隣りの地図に切り替え


METAR-TAF: